createdAt,value
2023-01-17T00:01:35.804Z,43.50
2023-01-17T00:04:17.711Z,42.42
2023-01-17T00:06:59.617Z,45.38
2023-01-17T00:09:41.572Z,44.30
2023-01-17T00:12:08.333Z,41.35
2023-01-17T00:14:35.854Z,43.97
2023-01-17T00:17:02.432Z,43.63
2023-01-17T00:19:44.703Z,43.90
2023-01-17T00:22:30.733Z,42.78
2023-01-17T00:25:14.994Z,43.90
2023-01-17T00:27:38.386Z,44.13
2023-01-17T00:30:02.472Z,42.67
2023-01-17T00:32:29.042Z,45.17
2023-01-17T00:34:52.306Z,45.08
2023-01-17T00:37:15.770Z,45.75
2023-01-17T00:39:39.035Z,47.10
2023-01-17T00:42:02.396Z,40.45
2023-01-17T00:44:44.516Z,41.50
2023-01-17T00:47:26.661Z,43.10
2023-01-17T00:50:10.256Z,36.75
2023-01-17T00:52:52.255Z,39.63
2023-01-17T00:55:34.252Z,37.95
2023-01-17T00:58:17.043Z,38.55
2023-01-17T01:00:58.952Z,38.03
2023-01-17T01:03:40.615Z,38.95
2023-01-17T01:06:25.400Z,39.20
2023-01-17T01:09:07.284Z,41.33
2023-01-17T01:11:49.360Z,37.65
2023-01-17T01:14:31.485Z,36.95
2023-01-17T01:17:13.477Z,39.58
2023-01-17T01:19:56.599Z,38.10
2023-01-17T01:22:40.777Z,37.97
2023-01-17T01:25:23.694Z,41.03
2023-01-17T01:28:05.652Z,40.45
2023-01-17T01:30:47.210Z,39.10
2023-01-17T01:33:20.325Z,37.67
2023-01-17T01:35:45.279Z,39.65
2023-01-17T01:38:11.291Z,40.20
2023-01-17T01:40:35.967Z,38.38
2023-01-17T01:43:05.984Z,39.13
2023-01-17T01:45:32.530Z,38.63
2023-01-17T01:48:03.875Z,38.75
2023-01-17T01:50:29.758Z,39.20
2023-01-17T01:52:57.376Z,38.67
2023-01-17T01:55:27.538Z,38.28
2023-01-17T01:57:56.330Z,40.80
2023-01-17T02:00:25.032Z,38.58
2023-01-17T02:02:51.229Z,39.03
2023-01-17T02:05:18.589Z,36.58
2023-01-17T02:07:49.201Z,37.47
2023-01-17T02:10:14.283Z,39.33
2023-01-17T02:12:40.943Z,39.85
2023-01-17T02:15:09.070Z,39.40
2023-01-17T02:17:45.043Z,40.35
2023-01-17T02:20:44.144Z,39.63
2023-01-17T02:23:50.631Z,40.40
2023-01-17T02:27:06.260Z,39.60
2023-01-17T02:30:03.675Z,40.65
2023-01-17T02:32:42.081Z,42.78
2023-01-17T02:35:15.260Z,43.47
2023-01-17T02:37:50.519Z,41.78
2023-01-17T02:40:20.706Z,42.42
2023-01-17T02:42:49.656Z,41.03
2023-01-17T02:45:17.719Z,42.80
2023-01-17T02:47:43.965Z,38.65
2023-01-17T02:50:13.754Z,38.55
2023-01-17T02:55:31.479Z,60.95
2023-01-17T02:58:27.876Z,50.25
2023-01-17T03:01:03.221Z,104.82
2023-01-17T03:03:35.536Z,70.25
2023-01-17T03:06:11.640Z,83.45
2023-01-17T03:08:36.689Z,80.22
2023-01-17T03:11:01.211Z,89.93
2023-01-17T03:13:26.296Z,46.47
2023-01-17T03:15:51.431Z,39.45
2023-01-17T03:18:17.644Z,41.28
2023-01-17T03:20:44.080Z,39.03
2023-01-17T03:23:09.032Z,40.00
2023-01-17T03:25:33.737Z,41.50
2023-01-17T03:27:58.638Z,39.42
2023-01-17T03:30:24.235Z,46.67
2023-01-17T03:32:49.062Z,47.08
2023-01-17T03:35:13.656Z,44.45
2023-01-17T03:37:39.789Z,45.25
2023-01-17T03:40:04.437Z,187.20
2023-01-17T03:42:30.579Z,108.28
2023-01-17T03:44:55.076Z,76.20
2023-01-17T03:47:19.763Z,94.57
2023-01-17T03:49:44.435Z,55.53
2023-01-17T03:52:09.706Z,48.92
2023-01-17T03:54:35.933Z,49.42
2023-01-17T03:57:00.678Z,45.03
2023-01-17T03:59:25.335Z,50.22
2023-01-17T04:01:50.204Z,64.05
2023-01-17T04:04:15.088Z,65.35
2023-01-17T04:06:39.938Z,66.00
2023-01-17T04:09:04.905Z,57.78
2023-01-17T04:11:31.017Z,56.13
2023-01-17T04:13:58.292Z,46.15
2023-01-17T04:16:27.391Z,45.40
2023-01-17T04:18:52.076Z,50.10
2023-01-17T04:21:16.571Z,46.97
2023-01-17T04:23:41.278Z,44.90
2023-01-17T04:26:06.113Z,49.03
2023-01-17T04:28:32.896Z,54.40
2023-01-17T04:30:59.773Z,56.25
2023-01-17T04:33:24.481Z,43.90
2023-01-17T04:35:49.093Z,54.75
2023-01-17T04:38:13.718Z,40.70
2023-01-17T04:40:38.658Z,42.75
2023-01-17T04:43:03.560Z,42.25
2023-01-17T04:45:29.584Z,46.40
2023-01-17T04:47:54.308Z,39.50
2023-01-17T04:50:19.208Z,37.63
2023-01-17T04:52:43.852Z,39.95
2023-01-17T04:55:09.283Z,38.45
2023-01-17T04:57:34.075Z,36.65
2023-01-17T04:59:59.082Z,36.20
2023-01-17T05:02:25.247Z,39.00
2023-01-17T05:04:49.897Z,39.33
2023-01-17T05:07:14.725Z,39.92
2023-01-17T05:09:39.431Z,40.83
2023-01-17T05:12:04.282Z,41.60
2023-01-17T05:14:30.749Z,41.67
2023-01-17T05:16:55.692Z,42.08
2023-01-17T05:19:21.720Z,42.65
2023-01-17T05:21:46.286Z,44.53
2023-01-17T05:24:11.017Z,44.30
2023-01-17T05:26:35.794Z,45.92
2023-01-17T05:29:00.483Z,46.17
2023-01-17T05:31:25.175Z,46.47
2023-01-17T05:33:49.771Z,46.30
2023-01-17T05:36:16.050Z,48.47
2023-01-17T05:38:41.019Z,50.22
2023-01-17T05:41:06.028Z,48.17
2023-01-17T05:43:30.763Z,46.15
2023-01-17T05:45:55.766Z,49.00
2023-01-17T05:48:20.815Z,47.85
2023-01-17T05:50:45.989Z,50.20
2023-01-17T05:53:14.739Z,51.63
2023-01-17T05:55:40.582Z,52.00
2023-01-17T05:58:05.789Z,44.92
2023-01-17T06:00:33.593Z,50.08
2023-01-17T06:02:59.865Z,48.72
2023-01-17T06:05:25.539Z,51.38
2023-01-17T06:07:50.946Z,53.65
2023-01-17T06:10:18.888Z,56.17
2023-01-17T06:12:44.124Z,50.90
2023-01-17T06:15:10.130Z,48.25
2023-01-17T06:17:35.653Z,47.97
2023-01-17T06:20:00.487Z,51.83
2023-01-17T06:22:25.140Z,54.42
2023-01-17T06:24:49.663Z,54.38
2023-01-17T06:27:15.778Z,57.78
2023-01-17T06:29:40.405Z,48.38
2023-01-17T06:32:05.714Z,46.17
2023-01-17T06:34:30.353Z,49.03
2023-01-17T06:36:54.778Z,47.58
2023-01-17T06:39:19.494Z,44.05
2023-01-17T06:41:44.250Z,47.47
2023-01-17T06:44:10.790Z,46.90
2023-01-17T06:46:35.372Z,45.72
2023-01-17T06:49:03.354Z,46.13
2023-01-17T06:51:27.955Z,46.50
2023-01-17T06:53:52.526Z,48.05
2023-01-17T06:56:18.455Z,52.17
2023-01-17T06:58:43.028Z,62.55
2023-01-17T07:01:10.852Z,47.22
2023-01-17T07:03:35.676Z,44.75
2023-01-17T07:06:03.560Z,48.17
2023-01-17T07:08:28.122Z,45.88
2023-01-17T07:10:53.158Z,47.17
2023-01-17T07:13:18.022Z,46.42
2023-01-17T07:15:42.702Z,45.80
2023-01-17T07:18:09.367Z,44.05
2023-01-17T07:20:34.494Z,43.40
2023-01-17T07:22:59.397Z,45.65
2023-01-17T07:25:24.708Z,46.10
2023-01-17T07:27:50.020Z,45.38
2023-01-17T07:30:15.930Z,46.53
2023-01-17T07:32:40.914Z,44.83
2023-01-17T07:35:08.317Z,46.63
2023-01-17T07:37:32.932Z,43.03
2023-01-17T07:39:57.595Z,44.22
2023-01-17T07:42:24.040Z,42.70
2023-01-17T07:44:48.954Z,43.72
2023-01-17T07:47:13.441Z,45.15
2023-01-17T07:49:38.042Z,43.58
2023-01-17T07:52:03.896Z,45.30
2023-01-17T07:54:28.966Z,50.03
2023-01-17T07:56:53.715Z,44.33
2023-01-17T07:59:18.315Z,44.00
2023-01-17T08:01:44.042Z,41.95
2023-01-17T08:04:09.502Z,42.90
2023-01-17T08:06:34.398Z,40.13
2023-01-17T08:09:00.794Z,41.70
2023-01-17T08:11:25.858Z,49.90
2023-01-17T08:13:56.358Z,45.33
2023-01-17T08:16:21.037Z,55.30
2023-01-17T08:18:45.621Z,42.03
2023-01-17T08:21:16.993Z,39.83
2023-01-17T08:23:41.977Z,41.15
2023-01-17T08:26:08.926Z,41.42
2023-01-17T08:28:33.617Z,41.40
2023-01-17T08:30:58.262Z,44.38
2023-01-17T08:33:22.940Z,50.83
2023-01-17T08:35:53.760Z,43.40
2023-01-17T08:38:19.080Z,41.53
2023-01-17T08:40:47.471Z,43.65
2023-01-17T08:43:14.197Z,41.53
2023-01-17T08:45:41.747Z,43.15
2023-01-17T08:48:06.715Z,41.55
2023-01-17T08:50:32.988Z,40.13
2023-01-17T08:53:01.548Z,42.53
2023-01-17T08:55:27.339Z,39.08
2023-01-17T08:57:52.371Z,38.70
2023-01-17T09:00:19.932Z,39.15
2023-01-17T09:02:44.708Z,37.13
2023-01-17T09:05:09.741Z,38.05
2023-01-17T09:07:34.309Z,37.03
2023-01-17T09:09:59.091Z,39.08
2023-01-17T09:12:23.896Z,38.63
2023-01-17T09:14:48.580Z,38.22
2023-01-17T09:17:14.661Z,35.45
2023-01-17T09:19:44.705Z,37.22
2023-01-17T09:22:10.269Z,38.37
2023-01-17T09:24:34.969Z,36.72
2023-01-17T09:26:59.583Z,38.38
2023-01-17T09:29:24.215Z,37.60
2023-01-17T09:31:49.815Z,37.03
2023-01-17T09:34:16.382Z,37.22
2023-01-17T09:36:41.327Z,35.92
2023-01-17T09:39:08.353Z,37.58
2023-01-17T09:41:34.853Z,36.67
2023-01-17T09:44:08.162Z,37.08
2023-01-17T09:46:38.927Z,42.28
2023-01-17T09:49:09.446Z,34.60
2023-01-17T09:54:05.359Z,34.03
2023-01-17T09:59:18.548Z,32.65
2023-01-17T10:01:55.861Z,33.50
2023-01-17T10:04:42.955Z,32.33
2023-01-17T10:07:19.253Z,32.15
2023-01-17T10:10:02.977Z,33.30
2023-01-17T10:12:38.762Z,33.58
2023-01-17T10:15:26.520Z,33.88
2023-01-17T10:18:01.749Z,32.22
2023-01-17T10:20:47.732Z,31.63
2023-01-17T10:23:42.117Z,32.42
2023-01-17T10:26:11.437Z,33.35
2023-01-17T10:28:42.344Z,34.88
2023-01-17T10:31:10.010Z,32.90
2023-01-17T10:33:41.979Z,33.88
2023-01-17T10:36:13.197Z,33.33
2023-01-17T10:38:44.842Z,34.95
2023-01-17T10:41:15.187Z,34.70
2023-01-17T10:43:50.462Z,33.40
2023-01-17T10:46:20.986Z,35.13
2023-01-17T10:48:49.717Z,34.08
2023-01-17T10:51:28.352Z,33.85
2023-01-17T10:54:06.248Z,34.60
2023-01-17T10:56:32.033Z,33.88
2023-01-17T10:59:11.472Z,37.40
2023-01-17T11:01:36.640Z,45.90
2023-01-17T11:04:01.573Z,35.67
2023-01-17T11:06:28.784Z,36.28
2023-01-17T11:08:57.140Z,35.47
2023-01-17T11:11:24.388Z,35.15
2023-01-17T11:13:56.243Z,37.72
2023-01-17T11:16:26.739Z,33.92
2023-01-17T11:19:17.217Z,35.20
2023-01-17T11:21:50.302Z,35.45
2023-01-17T11:24:25.709Z,35.08
2023-01-17T11:26:51.080Z,34.58
2023-01-17T11:29:18.204Z,34.95
2023-01-17T11:31:44.852Z,35.45
2023-01-17T11:34:16.509Z,34.28
2023-01-17T11:36:41.151Z,31.45
2023-01-17T11:39:08.171Z,30.85
2023-01-17T11:41:39.553Z,30.88
2023-01-17T11:44:20.819Z,28.80
2023-01-17T11:46:45.481Z,27.88
2023-01-17T11:49:24.228Z,29.00
2023-01-17T11:51:48.858Z,28.40
2023-01-17T11:54:19.739Z,29.25
2023-01-17T11:56:46.505Z,27.95
2023-01-17T11:59:31.673Z,28.33
2023-01-17T12:02:32.064Z,29.92
2023-01-17T12:05:07.604Z,28.05
2023-01-17T12:07:46.118Z,26.80
2023-01-17T12:10:16.267Z,24.90
2023-01-17T12:13:12.486Z,22.52
2023-01-17T12:15:52.225Z,19.20
2023-01-17T12:18:32.077Z,18.05
2023-01-17T12:21:13.426Z,17.73
2023-01-17T12:24:03.693Z,16.60
2023-01-17T12:26:36.119Z,14.85
2023-01-17T12:29:42.864Z,15.35
2023-01-17T12:32:27.142Z,14.82
2023-01-17T12:34:56.209Z,14.35
2023-01-17T12:37:24.043Z,13.93
2023-01-17T12:39:56.479Z,13.65
2023-01-17T12:42:25.351Z,13.35
2023-01-17T12:44:58.717Z,14.55
2023-01-17T12:47:23.869Z,14.25
2023-01-17T12:49:57.925Z,14.10
2023-01-17T12:52:29.913Z,13.73
2023-01-17T12:54:59.837Z,13.75
2023-01-17T12:59:57.703Z,13.13
2023-01-17T13:02:32.469Z,12.88
2023-01-17T13:05:02.213Z,13.05
2023-01-17T13:07:38.478Z,13.27
2023-01-17T13:10:16.422Z,11.85
2023-01-17T13:12:41.620Z,12.05
2023-01-17T13:15:17.584Z,11.65
2023-01-17T13:17:46.955Z,12.48
2023-01-17T13:20:22.778Z,11.48
2023-01-17T13:22:48.442Z,10.95
2023-01-17T13:25:30.979Z,9.93
2023-01-17T13:28:15.664Z,7.20
2023-01-17T13:31:14.312Z,6.10
2023-01-17T13:33:54.833Z,4.70
2023-01-17T13:36:31.092Z,4.80
2023-01-17T13:39:08.906Z,5.47
2023-01-17T13:41:51.555Z,4.80
2023-01-17T13:44:23.352Z,4.05
2023-01-17T13:47:02.729Z,4.53
2023-01-17T13:49:44.327Z,4.18
2023-01-17T13:52:12.643Z,5.18
2023-01-17T13:54:45.093Z,4.47
2023-01-17T13:57:41.925Z,4.88
2023-01-17T14:00:43.922Z,4.93
2023-01-17T14:03:12.837Z,4.90
2023-01-17T14:06:00.125Z,5.47
2023-01-17T14:08:27.419Z,5.03
2023-01-17T14:10:55.000Z,5.45
2023-01-17T14:13:35.387Z,5.38
2023-01-17T14:16:00.215Z,5.60
2023-01-17T14:18:34.752Z,5.18
2023-01-17T14:21:14.232Z,5.22
2023-01-17T14:24:03.804Z,5.65
2023-01-17T14:26:48.540Z,6.00
2023-01-17T14:29:50.949Z,6.93
2023-01-17T14:32:18.323Z,9.25
2023-01-17T14:34:44.164Z,12.88
2023-01-17T14:37:19.731Z,14.40
2023-01-17T14:39:46.564Z,18.30
2023-01-17T14:42:14.185Z,22.45
2023-01-17T14:44:40.060Z,23.83
2023-01-17T14:47:04.698Z,23.55
2023-01-17T14:49:29.094Z,23.27
2023-01-17T14:52:04.175Z,24.90
2023-01-17T14:54:30.388Z,25.77
2023-01-17T14:57:15.506Z,26.45
2023-01-17T14:59:39.999Z,26.08
2023-01-17T15:02:08.635Z,27.63
2023-01-17T15:04:39.815Z,26.75
2023-01-17T15:07:05.351Z,26.38
2023-01-17T15:09:36.805Z,28.73
2023-01-17T15:12:02.799Z,29.60
2023-01-17T15:14:30.553Z,29.65
2023-01-17T15:16:55.517Z,30.17
2023-01-17T15:19:21.901Z,29.15
2023-01-17T15:21:50.696Z,29.10
2023-01-17T15:24:19.421Z,30.65
2023-01-17T15:26:46.067Z,31.63
2023-01-17T15:29:19.353Z,30.17
2023-01-17T15:31:46.113Z,31.90
2023-01-17T15:34:23.790Z,32.38
2023-01-17T15:36:50.056Z,31.50
2023-01-17T15:39:21.664Z,30.50
2023-01-17T15:41:52.015Z,32.90
2023-01-17T15:44:33.389Z,31.55
2023-01-17T15:47:23.076Z,39.08
2023-01-17T15:49:52.629Z,37.13
2023-01-17T15:52:17.596Z,36.78
2023-01-17T15:54:47.937Z,33.92
2023-01-17T15:57:24.649Z,34.78
2023-01-17T15:59:53.968Z,35.92
2023-01-17T16:02:30.883Z,34.45
2023-01-17T16:04:55.963Z,32.53
2023-01-17T16:07:22.636Z,29.80
2023-01-17T16:09:47.582Z,33.72
2023-01-17T16:12:12.407Z,36.25
2023-01-17T16:14:56.378Z,30.27
2023-01-17T16:17:23.569Z,31.50
2023-01-17T16:19:48.243Z,30.00
2023-01-17T16:22:12.759Z,31.30
2023-01-17T16:24:37.121Z,31.48
2023-01-17T16:27:01.567Z,31.23
2023-01-17T16:29:26.117Z,30.45
2023-01-17T16:31:51.993Z,30.38
2023-01-17T16:34:16.443Z,30.77
2023-01-17T16:36:41.035Z,30.95
2023-01-17T16:39:05.793Z,30.25
2023-01-17T16:41:30.211Z,30.15
2023-01-17T16:44:00.264Z,29.48
2023-01-17T16:46:27.104Z,29.05
2023-01-17T16:48:53.075Z,29.23
2023-01-17T16:51:19.308Z,28.45
2023-01-17T16:53:43.773Z,27.75
2023-01-17T16:56:13.718Z,27.38
2023-01-17T17:01:02.352Z,27.10
2023-01-17T17:03:26.998Z,26.92
2023-01-17T17:05:59.060Z,27.90
2023-01-17T17:08:24.306Z,27.02
2023-01-17T17:10:48.869Z,29.15
2023-01-17T17:13:13.418Z,28.73
2023-01-17T17:15:43.967Z,29.75
2023-01-17T17:18:13.083Z,31.77
2023-01-17T17:20:38.396Z,29.92
2023-01-17T17:23:04.526Z,31.92
2023-01-17T17:25:29.332Z,34.95
2023-01-17T17:27:54.151Z,35.35
2023-01-17T17:30:19.261Z,34.63
2023-01-17T17:32:47.757Z,43.90
2023-01-17T17:35:12.373Z,44.70
2023-01-17T17:37:37.509Z,50.97
2023-01-17T17:40:04.004Z,53.42
2023-01-17T17:42:28.734Z,52.72
2023-01-17T17:44:53.045Z,55.50
2023-01-17T17:47:18.046Z,57.00
2023-01-17T17:49:42.888Z,58.25
2023-01-17T17:52:08.891Z,57.35
2023-01-17T17:54:33.758Z,59.22
2023-01-17T17:56:59.721Z,67.15
2023-01-17T17:59:24.510Z,65.22
2023-01-17T18:01:50.010Z,64.63
2023-01-17T18:04:15.026Z,65.15
2023-01-17T18:06:40.003Z,62.75
2023-01-17T18:09:05.422Z,55.95
2023-01-17T18:11:30.778Z,63.95
2023-01-17T18:13:59.670Z,56.25
2023-01-17T18:16:26.540Z,52.78
2023-01-17T18:18:53.471Z,52.70
2023-01-17T18:21:23.758Z,49.85
2023-01-17T18:23:48.460Z,44.67
2023-01-17T18:26:20.941Z,44.90
2023-01-17T18:28:45.829Z,40.45
2023-01-17T18:31:11.811Z,39.83
2023-01-17T18:33:38.650Z,41.72
2023-01-17T18:36:04.798Z,37.30
2023-01-17T18:38:38.000Z,35.30
2023-01-17T18:41:04.140Z,39.03
2023-01-17T18:43:28.648Z,37.22
2023-01-17T18:45:54.504Z,34.45
2023-01-17T18:48:20.442Z,34.92
2023-01-17T18:50:45.146Z,36.22
2023-01-17T18:53:09.719Z,37.33
2023-01-17T18:55:34.340Z,38.10
2023-01-17T18:57:58.751Z,39.42
2023-01-17T19:00:24.411Z,39.60
2023-01-17T19:02:49.902Z,38.92
2023-01-17T19:05:18.032Z,42.63
2023-01-17T19:07:42.485Z,40.90
2023-01-17T19:10:08.101Z,41.67
2023-01-17T19:12:32.517Z,41.63
2023-01-17T19:14:57.291Z,43.80
2023-01-17T19:17:21.967Z,43.35
2023-01-17T19:19:46.448Z,42.97
2023-01-17T19:22:12.464Z,42.33
2023-01-17T19:24:38.450Z,44.83
2023-01-17T19:27:03.198Z,39.28
2023-01-17T19:29:27.795Z,41.67
2023-01-17T19:31:52.982Z,44.13
2023-01-17T19:34:19.649Z,43.90
2023-01-17T19:36:44.103Z,43.22
2023-01-17T19:39:11.196Z,43.00
2023-01-17T19:41:38.633Z,44.38
2023-01-17T19:44:05.430Z,45.28
2023-01-17T19:46:31.251Z,44.30
2023-01-17T19:48:56.559Z,46.13
2023-01-17T19:51:21.211Z,44.22
2023-01-17T19:53:46.393Z,47.92
2023-01-17T19:56:14.763Z,48.42
2023-01-17T19:58:40.409Z,50.70
2023-01-17T20:01:09.956Z,72.28
2023-01-17T20:03:34.575Z,60.75
2023-01-17T20:05:58.986Z,50.15
2023-01-17T20:08:23.713Z,45.83
2023-01-17T20:10:49.155Z,44.10
2023-01-17T20:13:15.273Z,45.30
2023-01-17T20:15:39.708Z,49.55
2023-01-17T20:18:04.316Z,48.15
2023-01-17T20:20:32.557Z,51.83
2023-01-17T20:22:57.172Z,48.05
2023-01-17T20:25:21.623Z,52.42
2023-01-17T20:27:46.026Z,51.05
2023-01-17T20:30:20.146Z,56.70
2023-01-17T20:32:45.982Z,57.40
2023-01-17T20:35:11.450Z,48.95
2023-01-17T20:37:37.259Z,43.55
2023-01-17T20:40:01.655Z,46.58
2023-01-17T20:42:27.870Z,45.28
2023-01-17T20:44:52.421Z,45.67
2023-01-17T20:47:18.294Z,43.08
2023-01-17T20:49:43.679Z,44.80
2023-01-17T20:52:08.407Z,45.40
2023-01-17T20:54:32.725Z,45.25
2023-01-17T20:56:57.327Z,44.33
2023-01-17T20:59:23.085Z,45.80
2023-01-17T21:01:47.817Z,43.60
2023-01-17T21:04:14.995Z,42.38
2023-01-17T21:06:41.038Z,39.53
2023-01-17T21:09:07.406Z,41.45
2023-01-17T21:11:32.065Z,36.55
2023-01-17T21:13:57.455Z,37.08
2023-01-17T21:16:24.061Z,38.95
2023-01-17T21:18:50.148Z,36.03
2023-01-17T21:21:18.271Z,36.47
2023-01-17T21:23:44.711Z,37.78
2023-01-17T21:26:10.962Z,40.17
2023-01-17T21:28:38.053Z,36.92
2023-01-17T21:31:07.225Z,40.20
2023-01-17T21:33:31.869Z,41.10
2023-01-17T21:35:56.420Z,40.63
2023-01-17T21:38:22.585Z,38.63
2023-01-17T21:40:47.175Z,42.67
2023-01-17T21:43:13.173Z,41.95
2023-01-17T21:45:38.494Z,42.92
2023-01-17T21:48:03.261Z,46.83
2023-01-17T21:50:33.276Z,45.53
2023-01-17T21:52:57.860Z,46.95
2023-01-17T21:55:41.575Z,47.45
2023-01-17T21:58:30.323Z,43.25
2023-01-17T22:01:08.222Z,44.85
2023-01-17T22:03:32.673Z,44.30
2023-01-17T22:05:57.267Z,43.50
2023-01-17T22:08:22.552Z,44.25
2023-01-17T22:10:48.393Z,41.78
2023-01-17T22:13:14.249Z,45.42
2023-01-17T22:15:38.702Z,43.45
2023-01-17T22:18:03.227Z,45.40
2023-01-17T22:20:30.678Z,40.92
2023-01-17T22:22:55.325Z,41.25
2023-01-17T22:25:20.079Z,39.60
2023-01-17T22:27:45.933Z,44.97
2023-01-17T22:30:13.099Z,38.72
2023-01-17T22:32:37.792Z,40.63
2023-01-17T22:35:02.277Z,40.88
2023-01-17T22:37:28.447Z,38.67
2023-01-17T22:39:52.965Z,36.47
2023-01-17T22:42:17.379Z,33.72
2023-01-17T22:44:43.256Z,36.17
2023-01-17T22:47:07.765Z,35.08
2023-01-17T22:49:32.169Z,36.00
2023-01-17T22:51:56.590Z,35.83
2023-01-17T22:54:21.114Z,35.75
2023-01-17T22:56:45.611Z,37.90
2023-01-17T22:59:11.783Z,34.13
2023-01-17T23:01:37.686Z,35.90
2023-01-17T23:04:03.954Z,38.42
2023-01-17T23:06:31.131Z,36.28
2023-01-17T23:08:58.384Z,37.88
2023-01-17T23:11:42.903Z,34.03
2023-01-17T23:14:08.750Z,36.78
2023-01-17T23:16:51.032Z,33.53
2023-01-17T23:19:23.450Z,30.75
2023-01-17T23:22:05.190Z,32.47
2023-01-17T23:24:29.572Z,30.15
2023-01-17T23:27:08.072Z,31.30
2023-01-17T23:29:32.494Z,28.38
2023-01-17T23:31:57.069Z,29.75
2023-01-17T23:34:23.193Z,29.67
2023-01-17T23:36:47.537Z,35.85
2023-01-17T23:39:12.004Z,29.48
2023-01-17T23:41:53.724Z,29.17
2023-01-17T23:44:18.329Z,26.52
2023-01-17T23:46:42.805Z,26.02
2023-01-17T23:49:07.201Z,28.95
2023-01-17T23:51:33.134Z,29.92
2023-01-17T23:54:05.472Z,27.80
2023-01-17T23:56:30.382Z,29.20
2023-01-17T23:58:55.028Z,27.30
